sensor_id;sensor_type;location;lat;lon;timestamp;P1;durP1;ratioP1;P2;durP2;ratioP2
72557;SDS011;60583;50.094;8.748;2023-06-14T00:00:10;7.68;;;5.00;;
72557;SDS011;60583;50.094;8.748;2023-06-14T00:02:38;6.53;;;5.20;;
72557;SDS011;60583;50.094;8.748;2023-06-14T00:05:05;6.57;;;5.10;;
72557;SDS011;60583;50.094;8.748;2023-06-14T00:07:35;7.28;;;4.93;;
72557;SDS011;60583;50.094;8.748;2023-06-14T00:10:02;6.53;;;5.00;;
72557;SDS011;60583;50.094;8.748;2023-06-14T00:12:29;10.32;;;5.38;;
72557;SDS011;60583;50.094;8.748;2023-06-14T00:14:55;7.05;;;5.18;;
72557;SDS011;60583;50.094;8.748;2023-06-14T00:17:20;6.85;;;5.22;;
72557;SDS011;60583;50.094;8.748;2023-06-14T00:19:46;6.28;;;4.88;;
72557;SDS011;60583;50.094;8.748;2023-06-14T00:22:12;7.00;;;5.15;;
72557;SDS011;60583;50.094;8.748;2023-06-14T00:24:37;7.30;;;5.30;;
72557;SDS011;60583;50.094;8.748;2023-06-14T00:27:03;7.78;;;5.00;;
72557;SDS011;60583;50.094;8.748;2023-06-14T00:29:28;7.03;;;5.10;;
72557;SDS011;60583;50.094;8.748;2023-06-14T00:31:54;8.25;;;5.40;;
72557;SDS011;60583;50.094;8.748;2023-06-14T00:34:19;7.55;;;5.53;;
72557;SDS011;60583;50.094;8.748;2023-06-14T00:36:44;7.40;;;5.35;;
72557;SDS011;60583;50.094;8.748;2023-06-14T00:39:10;8.38;;;5.80;;
72557;SDS011;60583;50.094;8.748;2023-06-14T00:41:35;7.78;;;5.38;;
72557;SDS011;60583;50.094;8.748;2023-06-14T00:44:01;7.38;;;5.03;;
72557;SDS011;60583;50.094;8.748;2023-06-14T00:46:26;7.65;;;5.20;;
72557;SDS011;60583;50.094;8.748;2023-06-14T00:48:51;7.68;;;5.60;;
72557;SDS011;60583;50.094;8.748;2023-06-14T00:51:17;6.82;;;4.88;;
72557;SDS011;60583;50.094;8.748;2023-06-14T00:53:44;7.25;;;5.53;;
72557;SDS011;60583;50.094;8.748;2023-06-14T00:56:12;8.95;;;5.55;;
72557;SDS011;60583;50.094;8.748;2023-06-14T00:58:40;9.13;;;5.30;;
72557;SDS011;60583;50.094;8.748;2023-06-14T01:01:06;7.00;;;5.13;;
72557;SDS011;60583;50.094;8.748;2023-06-14T01:03:31;6.85;;;5.20;;
72557;SDS011;60583;50.094;8.748;2023-06-14T01:06:11;7.45;;;5.43;;
72557;SDS011;60583;50.094;8.748;2023-06-14T01:09:01;7.20;;;5.00;;
72557;SDS011;60583;50.094;8.748;2023-06-14T01:11:38;7.20;;;5.43;;
72557;SDS011;60583;50.094;8.748;2023-06-14T01:14:12;7.55;;;4.82;;
72557;SDS011;60583;50.094;8.748;2023-06-14T01:16:39;7.50;;;5.10;;
72557;SDS011;60583;50.094;8.748;2023-06-14T01:19:05;8.07;;;5.32;;
72557;SDS011;60583;50.094;8.748;2023-06-14T01:21:37;6.82;;;5.18;;
72557;SDS011;60583;50.094;8.748;2023-06-14T01:24:07;7.40;;;5.30;;
72557;SDS011;60583;50.094;8.748;2023-06-14T01:26:34;9.20;;;5.43;;
72557;SDS011;60583;50.094;8.748;2023-06-14T01:29:02;7.82;;;5.53;;
72557;SDS011;60583;50.094;8.748;2023-06-14T01:31:28;8.07;;;5.32;;
72557;SDS011;60583;50.094;8.748;2023-06-14T01:33:54;7.70;;;5.80;;
72557;SDS011;60583;50.094;8.748;2023-06-14T01:36:20;8.27;;;6.00;;
72557;SDS011;60583;50.094;8.748;2023-06-14T01:38:48;7.85;;;5.40;;
72557;SDS011;60583;50.094;8.748;2023-06-14T01:41:15;7.68;;;5.22;;
72557;SDS011;60583;50.094;8.748;2023-06-14T01:43:42;7.25;;;5.22;;
72557;SDS011;60583;50.094;8.748;2023-06-14T01:46:08;7.35;;;5.03;;
72557;SDS011;60583;50.094;8.748;2023-06-14T01:48:34;8.38;;;5.25;;
72557;SDS011;60583;50.094;8.748;2023-06-14T01:51:00;7.43;;;5.15;;
72557;SDS011;60583;50.094;8.748;2023-06-14T01:53:25;8.95;;;5.20;;
72557;SDS011;60583;50.094;8.748;2023-06-14T01:55:51;7.10;;;4.95;;
72557;SDS011;60583;50.094;8.748;2023-06-14T01:58:19;7.85;;;5.00;;
72557;SDS011;60583;50.094;8.748;2023-06-14T02:00:44;7.60;;;4.97;;
72557;SDS011;60583;50.094;8.748;2023-06-14T02:03:10;7.18;;;4.97;;
72557;SDS011;60583;50.094;8.748;2023-06-14T02:05:37;7.95;;;5.28;;
72557;SDS011;60583;50.094;8.748;2023-06-14T02:08:04;7.57;;;4.65;;
72557;SDS011;60583;50.094;8.748;2023-06-14T02:10:30;6.90;;;4.68;;
72557;SDS011;60583;50.094;8.748;2023-06-14T02:12:55;7.30;;;4.70;;
72557;SDS011;60583;50.094;8.748;2023-06-14T02:15:20;7.25;;;4.60;;
72557;SDS011;60583;50.094;8.748;2023-06-14T02:17:47;8.00;;;5.43;;
72557;SDS011;60583;50.094;8.748;2023-06-14T02:20:14;9.10;;;6.45;;
72557;SDS011;60583;50.094;8.748;2023-06-14T02:22:39;8.38;;;5.32;;
72557;SDS011;60583;50.094;8.748;2023-06-14T02:25:05;8.98;;;5.13;;
72557;SDS011;60583;50.094;8.748;2023-06-14T02:27:31;7.65;;;4.65;;
72557;SDS011;60583;50.094;8.748;2023-06-14T02:29:57;6.32;;;4.35;;
72557;SDS011;60583;50.094;8.748;2023-06-14T02:32:22;7.90;;;4.75;;
72557;SDS011;60583;50.094;8.748;2023-06-14T02:34:48;6.80;;;4.68;;
72557;SDS011;60583;50.094;8.748;2023-06-14T02:37:17;7.65;;;4.90;;
72557;SDS011;60583;50.094;8.748;2023-06-14T02:39:43;7.35;;;4.85;;
72557;SDS011;60583;50.094;8.748;2023-06-14T02:42:08;8.60;;;5.00;;
72557;SDS011;60583;50.094;8.748;2023-06-14T02:44:34;7.63;;;4.88;;
72557;SDS011;60583;50.094;8.748;2023-06-14T02:47:00;7.97;;;5.07;;
72557;SDS011;60583;50.094;8.748;2023-06-14T02:49:26;7.40;;;4.80;;
72557;SDS011;60583;50.094;8.748;2023-06-14T02:51:51;7.32;;;4.97;;
72557;SDS011;60583;50.094;8.748;2023-06-14T02:54:16;5.95;;;4.45;;
72557;SDS011;60583;50.094;8.748;2023-06-14T02:56:42;6.28;;;4.35;;
72557;SDS011;60583;50.094;8.748;2023-06-14T02:59:08;8.18;;;5.35;;
72557;SDS011;60583;50.094;8.748;2023-06-14T03:01:34;8.38;;;5.80;;
72557;SDS011;60583;50.094;8.748;2023-06-14T03:04:01;8.73;;;5.40;;
72557;SDS011;60583;50.094;8.748;2023-06-14T03:06:28;20.77;;;11.93;;
72557;SDS011;60583;50.094;8.748;2023-06-14T03:08:57;7.57;;;5.18;;
72557;SDS011;60583;50.094;8.748;2023-06-14T03:11:26;7.35;;;5.00;;
72557;SDS011;60583;50.094;8.748;2023-06-14T03:13:52;7.18;;;4.90;;
72557;SDS011;60583;50.094;8.748;2023-06-14T03:16:18;6.40;;;4.25;;
72557;SDS011;60583;50.094;8.748;2023-06-14T03:18:50;6.55;;;4.95;;
72557;SDS011;60583;50.094;8.748;2023-06-14T03:21:16;8.38;;;4.80;;
72557;SDS011;60583;50.094;8.748;2023-06-14T03:23:43;7.57;;;4.85;;
72557;SDS011;60583;50.094;8.748;2023-06-14T03:26:09;12.75;;;7.60;;
72557;SDS011;60583;50.094;8.748;2023-06-14T03:28:38;11.57;;;7.05;;
72557;SDS011;60583;50.094;8.748;2023-06-14T03:31:03;9.88;;;6.10;;
72557;SDS011;60583;50.094;8.748;2023-06-14T03:33:29;10.25;;;6.13;;
72557;SDS011;60583;50.094;8.748;2023-06-14T03:35:54;9.18;;;6.32;;
72557;SDS011;60583;50.094;8.748;2023-06-14T03:38:21;8.80;;;5.22;;
72557;SDS011;60583;50.094;8.748;2023-06-14T03:40:46;6.95;;;4.90;;
72557;SDS011;60583;50.094;8.748;2023-06-14T03:43:12;7.85;;;5.13;;
72557;SDS011;60583;50.094;8.748;2023-06-14T03:45:37;8.20;;;4.70;;
72557;SDS011;60583;50.094;8.748;2023-06-14T03:48:03;8.63;;;5.28;;
72557;SDS011;60583;50.094;8.748;2023-06-14T03:50:31;6.82;;;4.70;;
72557;SDS011;60583;50.094;8.748;2023-06-14T03:52:57;6.90;;;4.95;;
72557;SDS011;60583;50.094;8.748;2023-06-14T03:55:23;9.55;;;5.00;;
72557;SDS011;60583;50.094;8.748;2023-06-14T03:57:50;6.47;;;4.80;;
72557;SDS011;60583;50.094;8.748;2023-06-14T04:00:16;8.70;;;4.65;;
72557;SDS011;60583;50.094;8.748;2023-06-14T04:02:43;8.68;;;5.18;;
72557;SDS011;60583;50.094;8.748;2023-06-14T04:05:09;8.88;;;5.47;;
72557;SDS011;60583;50.094;8.748;2023-06-14T04:07:35;7.22;;;4.95;;
72557;SDS011;60583;50.094;8.748;2023-06-14T04:10:05;7.57;;;5.00;;
72557;SDS011;60583;50.094;8.748;2023-06-14T04:12:31;7.47;;;5.00;;
72557;SDS011;60583;50.094;8.748;2023-06-14T04:14:57;6.43;;;4.32;;
72557;SDS011;60583;50.094;8.748;2023-06-14T04:17:22;8.45;;;4.95;;
72557;SDS011;60583;50.094;8.748;2023-06-14T04:19:48;8.40;;;5.10;;
72557;SDS011;60583;50.094;8.748;2023-06-14T04:22:13;7.35;;;4.82;;
72557;SDS011;60583;50.094;8.748;2023-06-14T04:24:38;10.05;;;4.97;;
72557;SDS011;60583;50.094;8.748;2023-06-14T04:27:04;6.15;;;4.63;;
72557;SDS011;60583;50.094;8.748;2023-06-14T04:29:29;8.40;;;4.30;;
72557;SDS011;60583;50.094;8.748;2023-06-14T04:31:56;7.65;;;4.60;;
72557;SDS011;60583;50.094;8.748;2023-06-14T04:34:28;7.65;;;4.47;;
72557;SDS011;60583;50.094;8.748;2023-06-14T04:36:59;7.55;;;4.32;;
72557;SDS011;60583;50.094;8.748;2023-06-14T04:39:26;8.02;;;4.55;;
72557;SDS011;60583;50.094;8.748;2023-06-14T04:41:52;6.43;;;4.45;;
72557;SDS011;60583;50.094;8.748;2023-06-14T04:44:21;7.78;;;4.80;;
72557;SDS011;60583;50.094;8.748;2023-06-14T04:46:54;6.88;;;4.47;;
72557;SDS011;60583;50.094;8.748;2023-06-14T04:49:23;8.00;;;4.30;;
72557;SDS011;60583;50.094;8.748;2023-06-14T04:51:49;6.40;;;4.55;;
72557;SDS011;60583;50.094;8.748;2023-06-14T04:54:22;8.13;;;4.70;;
72557;SDS011;60583;50.094;8.748;2023-06-14T04:56:50;7.07;;;4.85;;
72557;SDS011;60583;50.094;8.748;2023-06-14T04:59:16;8.90;;;4.57;;
72557;SDS011;60583;50.094;8.748;2023-06-14T05:01:42;7.97;;;4.40;;
72557;SDS011;60583;50.094;8.748;2023-06-14T05:04:16;8.30;;;4.50;;
72557;SDS011;60583;50.094;8.748;2023-06-14T05:06:42;8.77;;;4.40;;
72557;SDS011;60583;50.094;8.748;2023-06-14T05:09:13;6.68;;;4.35;;
72557;SDS011;60583;50.094;8.748;2023-06-14T05:11:40;6.63;;;4.25;;
72557;SDS011;60583;50.094;8.748;2023-06-14T05:14:09;9.05;;;4.70;;
72557;SDS011;60583;50.094;8.748;2023-06-14T05:16:35;8.00;;;4.40;;
72557;SDS011;60583;50.094;8.748;2023-06-14T05:19:02;6.75;;;4.38;;
72557;SDS011;60583;50.094;8.748;2023-06-14T05:21:29;8.15;;;4.43;;
72557;SDS011;60583;50.094;8.748;2023-06-14T05:23:55;7.10;;;4.40;;
72557;SDS011;60583;50.094;8.748;2023-06-14T05:26:21;7.80;;;4.53;;
72557;SDS011;60583;50.094;8.748;2023-06-14T05:28:48;6.78;;;4.65;;
72557;SDS011;60583;50.094;8.748;2023-06-14T05:31:14;8.02;;;4.70;;
72557;SDS011;60583;50.094;8.748;2023-06-14T05:33:40;7.43;;;4.60;;
72557;SDS011;60583;50.094;8.748;2023-06-14T05:36:05;8.52;;;4.40;;
72557;SDS011;60583;50.094;8.748;2023-06-14T05:38:31;8.18;;;4.97;;
72557;SDS011;60583;50.094;8.748;2023-06-14T05:40:56;7.07;;;4.43;;
72557;SDS011;60583;50.094;8.748;2023-06-14T05:43:21;7.72;;;4.90;;
72557;SDS011;60583;50.094;8.748;2023-06-14T05:45:47;8.57;;;4.10;;
72557;SDS011;60583;50.094;8.748;2023-06-14T05:48:12;7.82;;;4.60;;
72557;SDS011;60583;50.094;8.748;2023-06-14T05:50:38;8.05;;;4.63;;
72557;SDS011;60583;50.094;8.748;2023-06-14T05:53:03;8.05;;;4.70;;
72557;SDS011;60583;50.094;8.748;2023-06-14T05:55:28;7.70;;;4.78;;
72557;SDS011;60583;50.094;8.748;2023-06-14T05:57:54;7.55;;;4.53;;
72557;SDS011;60583;50.094;8.748;2023-06-14T06:00:19;6.97;;;4.40;;
72557;SDS011;60583;50.094;8.748;2023-06-14T06:02:45;7.25;;;4.78;;
72557;SDS011;60583;50.094;8.748;2023-06-14T06:05:13;6.40;;;4.55;;
72557;SDS011;60583;50.094;8.748;2023-06-14T06:07:39;7.80;;;4.38;;
72557;SDS011;60583;50.094;8.748;2023-06-14T06:10:10;6.10;;;4.53;;
72557;SDS011;60583;50.094;8.748;2023-06-14T06:12:36;6.78;;;4.50;;
72557;SDS011;60583;50.094;8.748;2023-06-14T06:15:02;7.05;;;4.25;;
72557;SDS011;60583;50.094;8.748;2023-06-14T06:17:28;10.77;;;4.97;;
72557;SDS011;60583;50.094;8.748;2023-06-14T06:19:53;8.20;;;5.03;;
72557;SDS011;60583;50.094;8.748;2023-06-14T06:22:19;7.68;;;4.63;;
72557;SDS011;60583;50.094;8.748;2023-06-14T06:24:45;6.15;;;4.65;;
72557;SDS011;60583;50.094;8.748;2023-06-14T06:27:10;6.18;;;4.43;;
72557;SDS011;60583;50.094;8.748;2023-06-14T06:29:37;8.10;;;4.70;;
72557;SDS011;60583;50.094;8.748;2023-06-14T06:32:03;7.18;;;4.57;;
72557;SDS011;60583;50.094;8.748;2023-06-14T06:34:28;6.20;;;4.20;;
72557;SDS011;60583;50.094;8.748;2023-06-14T06:36:54;7.22;;;4.72;;
72557;SDS011;60583;50.094;8.748;2023-06-14T06:39:20;10.82;;;4.57;;
72557;SDS011;60583;50.094;8.748;2023-06-14T06:41:46;7.15;;;4.43;;
72557;SDS011;60583;50.094;8.748;2023-06-14T06:44:11;7.75;;;4.38;;
72557;SDS011;60583;50.094;8.748;2023-06-14T06:46:37;7.90;;;4.40;;
72557;SDS011;60583;50.094;8.748;2023-06-14T06:49:06;7.50;;;4.05;;
72557;SDS011;60583;50.094;8.748;2023-06-14T06:51:32;6.57;;;4.35;;
72557;SDS011;60583;50.094;8.748;2023-06-14T06:53:57;7.88;;;4.15;;
72557;SDS011;60583;50.094;8.748;2023-06-14T06:56:23;6.13;;;4.13;;
72557;SDS011;60583;50.094;8.748;2023-06-14T06:58:49;5.55;;;4.00;;
72557;SDS011;60583;50.094;8.748;2023-06-14T07:01:15;6.50;;;3.90;;
72557;SDS011;60583;50.094;8.748;2023-06-14T07:03:41;5.28;;;3.55;;
72557;SDS011;60583;50.094;8.748;2023-06-14T07:06:07;6.45;;;3.50;;
72557;SDS011;60583;50.094;8.748;2023-06-14T07:08:32;6.30;;;3.67;;
72557;SDS011;60583;50.094;8.748;2023-06-14T07:10:58;4.57;;;3.15;;
72557;SDS011;60583;50.094;8.748;2023-06-14T07:13:23;6.15;;;3.42;;
72557;SDS011;60583;50.094;8.748;2023-06-14T07:15:49;7.55;;;3.85;;
72557;SDS011;60583;50.094;8.748;2023-06-14T07:18:14;5.85;;;3.42;;
72557;SDS011;60583;50.094;8.748;2023-06-14T07:20:40;5.32;;;3.00;;
72557;SDS011;60583;50.094;8.748;2023-06-14T07:23:05;5.70;;;3.08;;
72557;SDS011;60583;50.094;8.748;2023-06-14T07:25:31;6.43;;;3.03;;
72557;SDS011;60583;50.094;8.748;2023-06-14T07:27:56;6.10;;;3.25;;
72557;SDS011;60583;50.094;8.748;2023-06-14T07:30:22;6.55;;;3.78;;
72557;SDS011;60583;50.094;8.748;2023-06-14T07:32:51;5.35;;;3.15;;
72557;SDS011;60583;50.094;8.748;2023-06-14T07:35:17;5.47;;;3.20;;
72557;SDS011;60583;50.094;8.748;2023-06-14T07:37:43;5.13;;;2.92;;
72557;SDS011;60583;50.094;8.748;2023-06-14T07:40:09;5.18;;;3.10;;
72557;SDS011;60583;50.094;8.748;2023-06-14T07:42:35;6.20;;;2.95;;
72557;SDS011;60583;50.094;8.748;2023-06-14T07:45:01;5.72;;;2.70;;
72557;SDS011;60583;50.094;8.748;2023-06-14T07:47:30;4.95;;;3.17;;
72557;SDS011;60583;50.094;8.748;2023-06-14T07:49:56;5.30;;;3.00;;
72557;SDS011;60583;50.094;8.748;2023-06-14T07:52:21;5.07;;;2.60;;
72557;SDS011;60583;50.094;8.748;2023-06-14T07:54:47;4.78;;;3.00;;
72557;SDS011;60583;50.094;8.748;2023-06-14T07:57:12;5.55;;;2.78;;
72557;SDS011;60583;50.094;8.748;2023-06-14T07:59:38;5.88;;;2.85;;
72557;SDS011;60583;50.094;8.748;2023-06-14T08:02:03;3.85;;;2.50;;
72557;SDS011;60583;50.094;8.748;2023-06-14T08:04:29;4.90;;;2.60;;
72557;SDS011;60583;50.094;8.748;2023-06-14T08:06:54;5.55;;;2.83;;
72557;SDS011;60583;50.094;8.748;2023-06-14T08:09:20;6.45;;;3.58;;
72557;SDS011;60583;50.094;8.748;2023-06-14T08:11:45;5.22;;;3.33;;
72557;SDS011;60583;50.094;8.748;2023-06-14T08:14:11;5.38;;;3.08;;
72557;SDS011;60583;50.094;8.748;2023-06-14T08:16:36;4.18;;;2.38;;
72557;SDS011;60583;50.094;8.748;2023-06-14T08:19:02;4.60;;;2.55;;
72557;SDS011;60583;50.094;8.748;2023-06-14T08:21:27;4.20;;;2.35;;
72557;SDS011;60583;50.094;8.748;2023-06-14T08:23:54;5.15;;;2.35;;
72557;SDS011;60583;50.094;8.748;2023-06-14T08:26:20;7.25;;;2.83;;
72557;SDS011;60583;50.094;8.748;2023-06-14T08:28:46;4.00;;;2.53;;
72557;SDS011;60583;50.094;8.748;2023-06-14T08:31:11;5.00;;;2.80;;
72557;SDS011;60583;50.094;8.748;2023-06-14T08:33:37;3.53;;;2.33;;
72557;SDS011;60583;50.094;8.748;2023-06-14T08:36:04;3.92;;;2.60;;
72557;SDS011;60583;50.094;8.748;2023-06-14T08:38:29;4.78;;;2.58;;
72557;SDS011;60583;50.094;8.748;2023-06-14T08:40:56;5.38;;;2.90;;
72557;SDS011;60583;50.094;8.748;2023-06-14T08:43:22;3.97;;;2.60;;
72557;SDS011;60583;50.094;8.748;2023-06-14T08:45:48;4.45;;;2.17;;
72557;SDS011;60583;50.094;8.748;2023-06-14T08:48:18;4.78;;;2.50;;
72557;SDS011;60583;50.094;8.748;2023-06-14T08:50:45;6.18;;;3.08;;
72557;SDS011;60583;50.094;8.748;2023-06-14T08:53:13;3.67;;;2.00;;
72557;SDS011;60583;50.094;8.748;2023-06-14T08:55:41;4.47;;;2.42;;
72557;SDS011;60583;50.094;8.748;2023-06-14T08:58:08;4.22;;;1.88;;
72557;SDS011;60583;50.094;8.748;2023-06-14T09:00:34;4.00;;;2.17;;
72557;SDS011;60583;50.094;8.748;2023-06-14T09:03:02;3.95;;;2.15;;
72557;SDS011;60583;50.094;8.748;2023-06-14T09:05:28;6.20;;;2.13;;
72557;SDS011;60583;50.094;8.748;2023-06-14T09:07:54;6.05;;;2.55;;
72557;SDS011;60583;50.094;8.748;2023-06-14T09:10:20;3.88;;;2.13;;
72557;SDS011;60583;50.094;8.748;2023-06-14T09:12:46;4.15;;;2.20;;
72557;SDS011;60583;50.094;8.748;2023-06-14T09:15:12;4.32;;;2.17;;
72557;SDS011;60583;50.094;8.748;2023-06-14T09:17:39;4.05;;;2.20;;
72557;SDS011;60583;50.094;8.748;2023-06-14T09:20:05;7.07;;;2.50;;
72557;SDS011;60583;50.094;8.748;2023-06-14T09:22:33;4.18;;;2.28;;
72557;SDS011;60583;50.094;8.748;2023-06-14T09:24:59;4.75;;;2.20;;
72557;SDS011;60583;50.094;8.748;2023-06-14T09:27:28;6.20;;;2.50;;
72557;SDS011;60583;50.094;8.748;2023-06-14T09:29:54;5.53;;;2.53;;
72557;SDS011;60583;50.094;8.748;2023-06-14T09:32:20;4.07;;;2.38;;
72557;SDS011;60583;50.094;8.748;2023-06-14T09:34:46;3.97;;;2.15;;
72557;SDS011;60583;50.094;8.748;2023-06-14T09:37:12;4.32;;;2.10;;
72557;SDS011;60583;50.094;8.748;2023-06-14T09:39:50;3.67;;;2.13;;
72557;SDS011;60583;50.094;8.748;2023-06-14T09:42:16;5.30;;;2.42;;
72557;SDS011;60583;50.094;8.748;2023-06-14T09:44:48;4.43;;;2.40;;
72557;SDS011;60583;50.094;8.748;2023-06-14T09:47:17;3.72;;;2.03;;
72557;SDS011;60583;50.094;8.748;2023-06-14T09:49:43;4.60;;;2.50;;
72557;SDS011;60583;50.094;8.748;2023-06-14T09:52:16;3.88;;;2.17;;
72557;SDS011;60583;50.094;8.748;2023-06-14T09:54:44;4.93;;;2.50;;
72557;SDS011;60583;50.094;8.748;2023-06-14T09:57:20;3.90;;;2.40;;
72557;SDS011;60583;50.094;8.748;2023-06-14T09:59:47;3.85;;;2.10;;
72557;SDS011;60583;50.094;8.748;2023-06-14T10:04:58;4.25;;;2.47;;
72557;SDS011;60583;50.094;8.748;2023-06-14T10:07:30;3.83;;;2.50;;
72557;SDS011;60583;50.094;8.748;2023-06-14T10:10:00;3.38;;;1.98;;
72557;SDS011;60583;50.094;8.748;2023-06-14T10:12:26;4.68;;;2.80;;
72557;SDS011;60583;50.094;8.748;2023-06-14T10:14:52;3.70;;;2.40;;
72557;SDS011;60583;50.094;8.748;2023-06-14T10:18:06;4.20;;;2.25;;
72557;SDS011;60583;50.094;8.748;2023-06-14T10:23:21;4.85;;;2.30;;
72557;SDS011;60583;50.094;8.748;2023-06-14T10:25:50;4.55;;;2.70;;
72557;SDS011;60583;50.094;8.748;2023-06-14T10:28:22;4.38;;;2.70;;
72557;SDS011;60583;50.094;8.748;2023-06-14T10:33:50;3.92;;;2.58;;
72557;SDS011;60583;50.094;8.748;2023-06-14T10:36:28;4.00;;;2.70;;
72557;SDS011;60583;50.094;8.748;2023-06-14T10:39:17;3.75;;;2.40;;
72557;SDS011;60583;50.094;8.748;2023-06-14T10:41:50;4.40;;;2.55;;
72557;SDS011;60583;50.094;8.748;2023-06-14T10:46:47;4.05;;;2.45;;
72557;SDS011;60583;50.094;8.748;2023-06-14T10:49:16;4.30;;;2.25;;
72557;SDS011;60583;50.094;8.748;2023-06-14T10:51:45;3.80;;;2.47;;
72557;SDS011;60583;50.094;8.748;2023-06-14T10:54:20;4.93;;;2.42;;
72557;SDS011;60583;50.094;8.748;2023-06-14T10:56:54;4.75;;;2.40;;
72557;SDS011;60583;50.094;8.748;2023-06-14T10:59:20;4.18;;;2.28;;
72557;SDS011;60583;50.094;8.748;2023-06-14T11:04:52;3.88;;;2.30;;
72557;SDS011;60583;50.094;8.748;2023-06-14T11:13:06;3.58;;;2.20;;
72557;SDS011;60583;50.094;8.748;2023-06-14T11:15:33;5.05;;;2.28;;
72557;SDS011;60583;50.094;8.748;2023-06-14T11:18:00;3.97;;;2.10;;
72557;SDS011;60583;50.094;8.748;2023-06-14T11:20:29;4.93;;;2.05;;
72557;SDS011;60583;50.094;8.748;2023-06-14T11:22:55;3.72;;;2.30;;
72557;SDS011;60583;50.094;8.748;2023-06-14T11:25:21;5.00;;;2.20;;
72557;SDS011;60583;50.094;8.748;2023-06-14T11:27:48;4.00;;;2.13;;
72557;SDS011;60583;50.094;8.748;2023-06-14T11:30:14;3.97;;;2.05;;
72557;SDS011;60583;50.094;8.748;2023-06-14T11:32:40;4.22;;;2.20;;
72557;SDS011;60583;50.094;8.748;2023-06-14T11:35:06;4.05;;;2.47;;
72557;SDS011;60583;50.094;8.748;2023-06-14T11:37:32;4.43;;;2.40;;
72557;SDS011;60583;50.094;8.748;2023-06-14T11:40:02;4.45;;;2.30;;
72557;SDS011;60583;50.094;8.748;2023-06-14T11:42:33;5.28;;;2.30;;
72557;SDS011;60583;50.094;8.748;2023-06-14T11:44:59;6.60;;;2.40;;
72557;SDS011;60583;50.094;8.748;2023-06-14T11:47:32;4.72;;;2.58;;
72557;SDS011;60583;50.094;8.748;2023-06-14T11:49:59;5.10;;;2.47;;
72557;SDS011;60583;50.094;8.748;2023-06-14T11:52:25;5.85;;;2.88;;
72557;SDS011;60583;50.094;8.748;2023-06-14T11:54:50;4.82;;;2.70;;
72557;SDS011;60583;50.094;8.748;2023-06-14T11:57:20;4.05;;;2.55;;
72557;SDS011;60583;50.094;8.748;2023-06-14T11:59:46;6.28;;;2.90;;
72557;SDS011;60583;50.094;8.748;2023-06-14T12:02:17;6.65;;;3.00;;
72557;SDS011;60583;50.094;8.748;2023-06-14T12:04:46;4.20;;;3.17;;
72557;SDS011;60583;50.094;8.748;2023-06-14T12:07:16;4.55;;;3.08;;
72557;SDS011;60583;50.094;8.748;2023-06-14T12:12:16;5.63;;;3.40;;
72557;SDS011;60583;50.094;8.748;2023-06-14T12:14:41;5.30;;;3.53;;
72557;SDS011;60583;50.094;8.748;2023-06-14T12:17:07;5.85;;;3.45;;
72557;SDS011;60583;50.094;8.748;2023-06-14T12:19:33;5.82;;;3.03;;
72557;SDS011;60583;50.094;8.748;2023-06-14T12:22:06;4.38;;;3.17;;
72557;SDS011;60583;50.094;8.748;2023-06-14T12:24:34;6.07;;;3.00;;
72557;SDS011;60583;50.094;8.748;2023-06-14T12:26:59;4.65;;;3.30;;
72557;SDS011;60583;50.094;8.748;2023-06-14T12:29:25;6.13;;;3.17;;
72557;SDS011;60583;50.094;8.748;2023-06-14T12:31:51;4.53;;;3.00;;
72557;SDS011;60583;50.094;8.748;2023-06-14T12:34:18;4.57;;;3.05;;
72557;SDS011;60583;50.094;8.748;2023-06-14T12:36:44;5.47;;;3.05;;
72557;SDS011;60583;50.094;8.748;2023-06-14T12:39:11;7.13;;;3.20;;
72557;SDS011;60583;50.094;8.748;2023-06-14T12:41:36;4.53;;;3.10;;
72557;SDS011;60583;50.094;8.748;2023-06-14T12:44:02;4.50;;;3.08;;
72557;SDS011;60583;50.094;8.748;2023-06-14T12:46:30;4.75;;;2.90;;
72557;SDS011;60583;50.094;8.748;2023-06-14T12:48:56;4.45;;;3.00;;
72557;SDS011;60583;50.094;8.748;2023-06-14T12:51:21;4.72;;;2.60;;
72557;SDS011;60583;50.094;8.748;2023-06-14T12:53:47;6.57;;;3.60;;
72557;SDS011;60583;50.094;8.748;2023-06-14T12:56:14;6.53;;;4.00;;
72557;SDS011;60583;50.094;8.748;2023-06-14T12:58:40;5.15;;;2.92;;
72557;SDS011;60583;50.094;8.748;2023-06-14T13:01:06;6.88;;;2.90;;
72557;SDS011;60583;50.094;8.748;2023-06-14T13:03:31;4.75;;;2.60;;
72557;SDS011;60583;50.094;8.748;2023-06-14T13:05:58;5.72;;;3.05;;
72557;SDS011;60583;50.094;8.748;2023-06-14T13:08:24;6.38;;;2.83;;
72557;SDS011;60583;50.094;8.748;2023-06-14T13:10:49;4.68;;;2.88;;
72557;SDS011;60583;50.094;8.748;2023-06-14T13:13:14;5.15;;;3.20;;
72557;SDS011;60583;50.094;8.748;2023-06-14T13:15:40;5.18;;;3.10;;
72557;SDS011;60583;50.094;8.748;2023-06-14T13:18:05;5.13;;;3.33;;
72557;SDS011;60583;50.094;8.748;2023-06-14T13:20:31;5.65;;;2.95;;
72557;SDS011;60583;50.094;8.748;2023-06-14T13:22:56;4.18;;;2.67;;
72557;SDS011;60583;50.094;8.748;2023-06-14T13:25:22;3.78;;;2.65;;
72557;SDS011;60583;50.094;8.748;2023-06-14T13:27:48;4.47;;;2.60;;
72557;SDS011;60583;50.094;8.748;2023-06-14T13:30:13;4.20;;;2.72;;
72557;SDS011;60583;50.094;8.748;2023-06-14T13:32:39;5.07;;;2.80;;
72557;SDS011;60583;50.094;8.748;2023-06-14T13:35:05;4.30;;;2.70;;
72557;SDS011;60583;50.094;8.748;2023-06-14T13:37:30;4.05;;;2.45;;
72557;SDS011;60583;50.094;8.748;2023-06-14T13:39:56;7.32;;;2.80;;
72557;SDS011;60583;50.094;8.748;2023-06-14T13:42:21;3.90;;;2.60;;
72557;SDS011;60583;50.094;8.748;2023-06-14T13:44:47;4.32;;;2.78;;
72557;SDS011;60583;50.094;8.748;2023-06-14T13:47:12;4.57;;;2.80;;
72557;SDS011;60583;50.094;8.748;2023-06-14T13:49:37;3.85;;;2.42;;
72557;SDS011;60583;50.094;8.748;2023-06-14T13:52:03;4.90;;;2.42;;
72557;SDS011;60583;50.094;8.748;2023-06-14T13:54:29;4.90;;;2.72;;
72557;SDS011;60583;50.094;8.748;2023-06-14T13:56:54;4.18;;;2.70;;
72557;SDS011;60583;50.094;8.748;2023-06-14T13:59:19;6.95;;;2.80;;
72557;SDS011;60583;50.094;8.748;2023-06-14T14:01:45;5.10;;;2.53;;
72557;SDS011;60583;50.094;8.748;2023-06-14T14:04:10;4.50;;;2.70;;
72557;SDS011;60583;50.094;8.748;2023-06-14T14:06:36;4.05;;;2.50;;
72557;SDS011;60583;50.094;8.748;2023-06-14T14:09:02;3.70;;;2.50;;
72557;SDS011;60583;50.094;8.748;2023-06-14T14:11:27;4.22;;;2.58;;
72557;SDS011;60583;50.094;8.748;2023-06-14T14:13:53;5.05;;;2.63;;
72557;SDS011;60583;50.094;8.748;2023-06-14T14:16:19;4.43;;;2.60;;
72557;SDS011;60583;50.094;8.748;2023-06-14T14:18:45;3.90;;;2.58;;
72557;SDS011;60583;50.094;8.748;2023-06-14T14:21:11;4.30;;;2.53;;
72557;SDS011;60583;50.094;8.748;2023-06-14T14:23:36;4.85;;;2.53;;
72557;SDS011;60583;50.094;8.748;2023-06-14T14:26:02;6.18;;;2.90;;
72557;SDS011;60583;50.094;8.748;2023-06-14T14:28:29;4.10;;;2.40;;
72557;SDS011;60583;50.094;8.748;2023-06-14T14:30:55;5.78;;;2.88;;
72557;SDS011;60583;50.094;8.748;2023-06-14T14:33:21;8.43;;;5.43;;
72557;SDS011;60583;50.094;8.748;2023-06-14T14:35:47;4.13;;;2.40;;
72557;SDS011;60583;50.094;8.748;2023-06-14T14:38:13;4.90;;;2.53;;
72557;SDS011;60583;50.094;8.748;2023-06-14T14:40:40;5.93;;;2.50;;
72557;SDS011;60583;50.094;8.748;2023-06-14T14:43:06;4.22;;;2.50;;
72557;SDS011;60583;50.094;8.748;2023-06-14T14:45:32;4.53;;;2.50;;
72557;SDS011;60583;50.094;8.748;2023-06-14T14:47:57;4.32;;;2.72;;
72557;SDS011;60583;50.094;8.748;2023-06-14T14:50:23;5.95;;;2.60;;
72557;SDS011;60583;50.094;8.748;2023-06-14T14:52:48;3.50;;;2.35;;
72557;SDS011;60583;50.094;8.748;2023-06-14T14:55:13;4.10;;;2.75;;
72557;SDS011;60583;50.094;8.748;2023-06-14T14:57:39;6.38;;;2.70;;
72557;SDS011;60583;50.094;8.748;2023-06-14T15:00:05;3.80;;;2.33;;
72557;SDS011;60583;50.094;8.748;2023-06-14T15:02:31;4.00;;;2.53;;
72557;SDS011;60583;50.094;8.748;2023-06-14T15:04:56;4.25;;;2.30;;
72557;SDS011;60583;50.094;8.748;2023-06-14T15:07:29;5.18;;;2.40;;